sensor_id;sensor_type;location;lat;lon;timestamp;P1;durP1;ratioP1;P2;durP2;ratioP2
74158;SDS011;62511;47.970;11.774;2022-11-04T00:01:23;3.90;;;2.50;;
74158;SDS011;62511;47.970;11.774;2022-11-04T00:03:49;2.83;;;1.70;;
74158;SDS011;62511;47.970;11.774;2022-11-04T00:06:15;3.78;;;1.80;;
74158;SDS011;62511;47.970;11.774;2022-11-04T00:08:41;4.38;;;1.52;;
74158;SDS011;62511;47.970;11.774;2022-11-04T00:11:08;3.60;;;1.73;;
74158;SDS011;62511;47.970;11.774;2022-11-04T00:13:52;3.38;;;2.10;;
74158;SDS011;62511;47.970;11.774;2022-11-04T00:16:18;4.13;;;1.90;;
74158;SDS011;62511;47.970;11.774;2022-11-04T00:19:03;3.38;;;1.77;;
74158;SDS011;62511;47.970;11.774;2022-11-04T00:21:29;4.07;;;1.88;;
74158;SDS011;62511;47.970;11.774;2022-11-04T00:24:13;2.08;;;1.50;;
74158;SDS011;62511;47.970;11.774;2022-11-04T00:26:54;3.25;;;1.80;;
74158;SDS011;62511;47.970;11.774;2022-11-04T00:29:39;3.30;;;1.73;;
74158;SDS011;62511;47.970;11.774;2022-11-04T00:32:05;3.45;;;1.75;;
74158;SDS011;62511;47.970;11.774;2022-11-04T00:34:50;2.80;;;1.80;;
74158;SDS011;62511;47.970;11.774;2022-11-04T00:37:16;3.13;;;1.45;;
74158;SDS011;62511;47.970;11.774;2022-11-04T00:39:42;3.40;;;1.73;;
74158;SDS011;62511;47.970;11.774;2022-11-04T00:42:08;2.45;;;1.55;;
74158;SDS011;62511;47.970;11.774;2022-11-04T00:44:34;2.45;;;1.13;;
74158;SDS011;62511;47.970;11.774;2022-11-04T00:47:00;2.40;;;1.23;;
74158;SDS011;62511;47.970;11.774;2022-11-04T00:49:26;4.60;;;1.77;;
74158;SDS011;62511;47.970;11.774;2022-11-04T00:51:53;1.95;;;1.00;;
74158;SDS011;62511;47.970;11.774;2022-11-04T00:54:19;2.35;;;1.25;;
74158;SDS011;62511;47.970;11.774;2022-11-04T00:56:45;1.52;;;1.00;;
74158;SDS011;62511;47.970;11.774;2022-11-04T00:59:14;3.75;;;1.50;;
74158;SDS011;62511;47.970;11.774;2022-11-04T01:01:40;2.38;;;1.35;;
74158;SDS011;62511;47.970;11.774;2022-11-04T01:04:06;2.97;;;1.40;;
74158;SDS011;62511;47.970;11.774;2022-11-04T01:06:33;2.53;;;1.58;;
74158;SDS011;62511;47.970;11.774;2022-11-04T01:09:00;1.58;;;0.93;;
74158;SDS011;62511;47.970;11.774;2022-11-04T01:11:27;1.50;;;1.00;;
74158;SDS011;62511;47.970;11.774;2022-11-04T01:13:54;1.88;;;1.08;;
74158;SDS011;62511;47.970;11.774;2022-11-04T01:16:21;1.33;;;0.95;;
74158;SDS011;62511;47.970;11.774;2022-11-04T01:18:47;1.08;;;0.75;;
74158;SDS011;62511;47.970;11.774;2022-11-04T01:21:14;2.30;;;1.15;;
74158;SDS011;62511;47.970;11.774;2022-11-04T01:23:41;2.08;;;0.85;;
74158;SDS011;62511;47.970;11.774;2022-11-04T01:26:08;1.92;;;0.80;;
74158;SDS011;62511;47.970;11.774;2022-11-04T01:28:35;2.75;;;1.20;;
74158;SDS011;62511;47.970;11.774;2022-11-04T01:31:11;1.75;;;0.70;;
74158;SDS011;62511;47.970;11.774;2022-11-04T01:33:37;0.93;;;0.60;;
74158;SDS011;62511;47.970;11.774;2022-11-04T01:36:04;1.90;;;0.90;;
74158;SDS011;62511;47.970;11.774;2022-11-04T01:38:30;2.47;;;0.70;;
74158;SDS011;62511;47.970;11.774;2022-11-04T01:40:57;1.48;;;0.80;;
74158;SDS011;62511;47.970;11.774;2022-11-04T01:43:30;1.33;;;0.70;;
74158;SDS011;62511;47.970;11.774;2022-11-04T01:46:07;0.95;;;0.57;;
74158;SDS011;62511;47.970;11.774;2022-11-04T01:48:33;1.75;;;1.17;;
74158;SDS011;62511;47.970;11.774;2022-11-04T01:51:00;1.13;;;0.77;;
74158;SDS011;62511;47.970;11.774;2022-11-04T01:53:30;2.17;;;0.60;;
74158;SDS011;62511;47.970;11.774;2022-11-04T01:55:58;2.10;;;0.82;;
74158;SDS011;62511;47.970;11.774;2022-11-04T01:58:25;1.33;;;0.75;;
74158;SDS011;62511;47.970;11.774;2022-11-04T02:00:53;1.23;;;0.65;;
74158;SDS011;62511;47.970;11.774;2022-11-04T02:03:20;1.20;;;0.63;;
74158;SDS011;62511;47.970;11.774;2022-11-04T02:05:48;2.03;;;0.75;;
74158;SDS011;62511;47.970;11.774;2022-11-04T02:08:15;1.40;;;0.60;;
74158;SDS011;62511;47.970;11.774;2022-11-04T02:10:49;6.80;;;0.70;;
74158;SDS011;62511;47.970;11.774;2022-11-04T02:13:17;1.70;;;0.80;;
74158;SDS011;62511;47.970;11.774;2022-11-04T02:21:26;1.95;;;0.43;;
74158;SDS011;62511;47.970;11.774;2022-11-04T02:34:14;0.82;;;0.50;;
74158;SDS011;62511;47.970;11.774;2022-11-04T02:36:45;0.50;;;0.30;;
74158;SDS011;62511;47.970;11.774;2022-11-04T02:41:53;0.43;;;0.25;;
74158;SDS011;62511;47.970;11.774;2022-11-04T02:46:56;1.05;;;0.50;;
74158;SDS011;62511;47.970;11.774;2022-11-04T02:54:22;0.43;;;0.30;;
74158;SDS011;62511;47.970;11.774;2022-11-04T02:56:50;0.40;;;0.10;;
74158;SDS011;62511;47.970;11.774;2022-11-04T02:59:18;0.35;;;0.20;;
74158;SDS011;62511;47.970;11.774;2022-11-04T03:01:45;0.40;;;0.30;;
74158;SDS011;62511;47.970;11.774;2022-11-04T03:04:17;0.50;;;0.40;;
74158;SDS011;62511;47.970;11.774;2022-11-04T03:06:46;1.02;;;0.40;;
74158;SDS011;62511;47.970;11.774;2022-11-04T03:09:13;0.38;;;0.30;;
74158;SDS011;62511;47.970;11.774;2022-11-04T03:11:40;0.20;;;0.20;;
74158;SDS011;62511;47.970;11.774;2022-11-04T03:14:09;0.70;;;0.38;;
74158;SDS011;62511;47.970;11.774;2022-11-04T03:16:40;0.47;;;0.30;;
74158;SDS011;62511;47.970;11.774;2022-11-04T03:19:10;0.52;;;0.30;;
74158;SDS011;62511;47.970;11.774;2022-11-04T03:21:39;0.52;;;0.20;;
74158;SDS011;62511;47.970;11.774;2022-11-04T03:24:08;0.22;;;0.22;;
74158;SDS011;62511;47.970;11.774;2022-11-04T03:26:41;0.32;;;0.20;;
74158;SDS011;62511;47.970;11.774;2022-11-04T03:31:46;0.80;;;0.40;;
74158;SDS011;62511;47.970;11.774;2022-11-04T03:34:16;0.47;;;0.30;;
74158;SDS011;62511;47.970;11.774;2022-11-04T03:36:42;2.55;;;0.40;;
74158;SDS011;62511;47.970;11.774;2022-11-04T03:39:08;0.65;;;0.30;;
74158;SDS011;62511;47.970;11.774;2022-11-04T03:41:38;0.40;;;0.32;;
74158;SDS011;62511;47.970;11.774;2022-11-04T03:44:05;0.50;;;0.20;;
74158;SDS011;62511;47.970;11.774;2022-11-04T03:46:31;0.73;;;0.47;;
74158;SDS011;62511;47.970;11.774;2022-11-04T03:48:58;1.05;;;0.45;;
74158;SDS011;62511;47.970;11.774;2022-11-04T03:51:24;0.45;;;0.30;;
74158;SDS011;62511;47.970;11.774;2022-11-04T03:53:50;0.60;;;0.32;;
74158;SDS011;62511;47.970;11.774;2022-11-04T04:04:25;2.22;;;0.40;;
74158;SDS011;62511;47.970;11.774;2022-11-04T04:06:53;0.50;;;0.30;;
74158;SDS011;62511;47.970;11.774;2022-11-04T04:09:25;0.40;;;0.28;;
74158;SDS011;62511;47.970;11.774;2022-11-04T04:11:56;0.30;;;0.20;;
74158;SDS011;62511;47.970;11.774;2022-11-04T04:14:26;1.92;;;0.38;;
74158;SDS011;62511;47.970;11.774;2022-11-04T04:19:31;0.45;;;0.30;;
74158;SDS011;62511;47.970;11.774;2022-11-04T04:22:02;0.35;;;0.30;;
74158;SDS011;62511;47.970;11.774;2022-11-04T04:24:31;0.30;;;0.22;;
74158;SDS011;62511;47.970;11.774;2022-11-04T04:27:17;0.35;;;0.35;;
74158;SDS011;62511;47.970;11.774;2022-11-04T04:29:56;0.30;;;0.30;;
74158;SDS011;62511;47.970;11.774;2022-11-04T04:32:23;1.25;;;0.40;;
74158;SDS011;62511;47.970;11.774;2022-11-04T04:34:51;0.65;;;0.30;;
74158;SDS011;62511;47.970;11.774;2022-11-04T04:37:37;0.73;;;0.40;;
74158;SDS011;62511;47.970;11.774;2022-11-04T04:42:50;0.40;;;0.32;;
74158;SDS011;62511;47.970;11.774;2022-11-04T04:45:35;0.20;;;0.13;;
74158;SDS011;62511;47.970;11.774;2022-11-04T04:48:02;0.40;;;0.40;;
74158;SDS011;62511;47.970;11.774;2022-11-04T04:50:34;0.63;;;0.50;;
74158;SDS011;62511;47.970;11.774;2022-11-04T04:53:01;0.40;;;0.40;;
74158;SDS011;62511;47.970;11.774;2022-11-04T04:55:28;0.28;;;0.25;;
74158;SDS011;62511;47.970;11.774;2022-11-04T05:00:21;9.43;;;3.22;;
74158;SDS011;62511;47.970;11.774;2022-11-04T05:02:47;15.73;;;6.75;;
74158;SDS011;62511;47.970;11.774;2022-11-04T05:05:14;14.32;;;6.22;;
74158;SDS011;62511;47.970;11.774;2022-11-04T05:07:40;16.70;;;7.10;;
74158;SDS011;62511;47.970;11.774;2022-11-04T05:10:07;13.88;;;5.53;;
74158;SDS011;62511;47.970;11.774;2022-11-04T05:12:34;10.52;;;4.85;;
74158;SDS011;62511;47.970;11.774;2022-11-04T05:15:19;20.05;;;11.35;;
74158;SDS011;62511;47.970;11.774;2022-11-04T05:17:45;19.92;;;11.80;;
74158;SDS011;62511;47.970;11.774;2022-11-04T05:20:11;25.80;;;11.63;;
74158;SDS011;62511;47.970;11.774;2022-11-04T05:22:37;7.63;;;3.08;;
74158;SDS011;62511;47.970;11.774;2022-11-04T05:25:03;1.80;;;1.00;;
74158;SDS011;62511;47.970;11.774;2022-11-04T05:27:29;1.75;;;0.80;;
74158;SDS011;62511;47.970;11.774;2022-11-04T05:29:55;1.25;;;0.65;;
74158;SDS011;62511;47.970;11.774;2022-11-04T05:32:21;1.35;;;0.90;;
74158;SDS011;62511;47.970;11.774;2022-11-04T05:34:47;2.72;;;1.20;;
74158;SDS011;62511;47.970;11.774;2022-11-04T05:37:13;3.92;;;2.22;;
74158;SDS011;62511;47.970;11.774;2022-11-04T05:39:39;3.92;;;2.10;;
74158;SDS011;62511;47.970;11.774;2022-11-04T05:42:05;3.08;;;1.25;;
74158;SDS011;62511;47.970;11.774;2022-11-04T05:44:31;0.90;;;0.60;;
74158;SDS011;62511;47.970;11.774;2022-11-04T05:46:57;0.65;;;0.60;;
74158;SDS011;62511;47.970;11.774;2022-11-04T05:49:23;0.60;;;0.32;;
74158;SDS011;62511;47.970;11.774;2022-11-04T05:51:49;0.70;;;0.60;;
74158;SDS011;62511;47.970;11.774;2022-11-04T05:54:15;0.85;;;0.38;;
74158;SDS011;62511;47.970;11.774;2022-11-04T05:56:41;1.55;;;0.65;;
74158;SDS011;62511;47.970;11.774;2022-11-04T05:59:07;0.85;;;0.60;;
74158;SDS011;62511;47.970;11.774;2022-11-04T06:01:34;1.33;;;0.70;;
74158;SDS011;62511;47.970;11.774;2022-11-04T06:04:01;0.30;;;0.30;;
74158;SDS011;62511;47.970;11.774;2022-11-04T06:06:29;0.43;;;0.38;;
74158;SDS011;62511;47.970;11.774;2022-11-04T06:08:55;0.52;;;0.40;;
74158;SDS011;62511;47.970;11.774;2022-11-04T06:11:22;1.05;;;0.50;;
74158;SDS011;62511;47.970;11.774;2022-11-04T06:13:49;0.70;;;0.32;;
74158;SDS011;62511;47.970;11.774;2022-11-04T06:16:15;2.70;;;0.68;;
74158;SDS011;62511;47.970;11.774;2022-11-04T06:18:41;2.20;;;0.50;;
74158;SDS011;62511;47.970;11.774;2022-11-04T06:23:40;1.08;;;0.52;;
74158;SDS011;62511;47.970;11.774;2022-11-04T06:26:06;4.22;;;1.42;;
74158;SDS011;62511;47.970;11.774;2022-11-04T06:28:32;6.45;;;2.28;;
74158;SDS011;62511;47.970;11.774;2022-11-04T06:30:59;2.75;;;1.52;;
74158;SDS011;62511;47.970;11.774;2022-11-04T06:33:26;1.70;;;0.82;;
74158;SDS011;62511;47.970;11.774;2022-11-04T06:35:55;10.27;;;2.03;;
74158;SDS011;62511;47.970;11.774;2022-11-04T06:38:21;7.95;;;1.85;;
74158;SDS011;62511;47.970;11.774;2022-11-04T06:40:47;6.55;;;1.73;;
74158;SDS011;62511;47.970;11.774;2022-11-04T06:43:13;4.93;;;1.60;;
74158;SDS011;62511;47.970;11.774;2022-11-04T06:45:39;8.48;;;2.30;;
74158;SDS011;62511;47.970;11.774;2022-11-04T06:48:05;2.20;;;0.65;;
74158;SDS011;62511;47.970;11.774;2022-11-04T06:50:31;0.93;;;0.60;;
74158;SDS011;62511;47.970;11.774;2022-11-04T06:52:57;1.10;;;0.55;;
74158;SDS011;62511;47.970;11.774;2022-11-04T06:55:23;1.35;;;0.40;;
74158;SDS011;62511;47.970;11.774;2022-11-04T06:57:49;0.52;;;0.30;;
74158;SDS011;62511;47.970;11.774;2022-11-04T07:00:15;0.30;;;0.20;;
74158;SDS011;62511;47.970;11.774;2022-11-04T07:02:42;0.52;;;0.25;;
74158;SDS011;62511;47.970;11.774;2022-11-04T07:05:08;2.30;;;0.65;;
74158;SDS011;62511;47.970;11.774;2022-11-04T07:07:34;2.42;;;0.80;;
74158;SDS011;62511;47.970;11.774;2022-11-04T07:10:00;2.35;;;0.80;;
74158;SDS011;62511;47.970;11.774;2022-11-04T07:12:26;1.45;;;0.50;;
74158;SDS011;62511;47.970;11.774;2022-11-04T07:14:52;0.73;;;0.45;;
74158;SDS011;62511;47.970;11.774;2022-11-04T07:17:20;1.13;;;0.50;;
74158;SDS011;62511;47.970;11.774;2022-11-04T07:19:46;1.17;;;0.52;;
74158;SDS011;62511;47.970;11.774;2022-11-04T07:22:12;1.10;;;0.70;;
74158;SDS011;62511;47.970;11.774;2022-11-04T07:24:38;1.30;;;0.50;;
74158;SDS011;62511;47.970;11.774;2022-11-04T07:27:04;0.68;;;0.20;;
74158;SDS011;62511;47.970;11.774;2022-11-04T07:29:31;1.00;;;0.35;;
74158;SDS011;62511;47.970;11.774;2022-11-04T07:31:57;0.43;;;0.30;;
74158;SDS011;62511;47.970;11.774;2022-11-04T07:34:23;0.52;;;0.30;;
74158;SDS011;62511;47.970;11.774;2022-11-04T07:36:49;0.77;;;0.47;;
74158;SDS011;62511;47.970;11.774;2022-11-04T07:39:15;1.20;;;0.50;;
74158;SDS011;62511;47.970;11.774;2022-11-04T07:41:41;0.80;;;0.47;;
74158;SDS011;62511;47.970;11.774;2022-11-04T07:44:09;0.65;;;0.55;;
74158;SDS011;62511;47.970;11.774;2022-11-04T07:46:35;0.77;;;0.40;;
74158;SDS011;62511;47.970;11.774;2022-11-04T07:49:02;1.60;;;0.30;;
74158;SDS011;62511;47.970;11.774;2022-11-04T07:51:28;0.65;;;0.50;;
74158;SDS011;62511;47.970;11.774;2022-11-04T07:53:57;1.13;;;0.60;;
74158;SDS011;62511;47.970;11.774;2022-11-04T07:56:23;1.85;;;1.00;;
74158;SDS011;62511;47.970;11.774;2022-11-04T07:58:50;2.70;;;0.75;;
74158;SDS011;62511;47.970;11.774;2022-11-04T08:01:17;7.88;;;4.20;;
74158;SDS011;62511;47.970;11.774;2022-11-04T08:03:44;3.03;;;1.40;;
74158;SDS011;62511;47.970;11.774;2022-11-04T08:06:13;7.60;;;2.45;;
74158;SDS011;62511;47.970;11.774;2022-11-04T08:08:39;1.45;;;0.95;;
74158;SDS011;62511;47.970;11.774;2022-11-04T08:11:17;5.85;;;2.25;;
74158;SDS011;62511;47.970;11.774;2022-11-04T08:13:43;0.93;;;0.40;;
74158;SDS011;62511;47.970;11.774;2022-11-04T08:16:11;0.20;;;0.20;;
74158;SDS011;62511;47.970;11.774;2022-11-04T08:18:37;1.10;;;0.40;;
74158;SDS011;62511;47.970;11.774;2022-11-04T08:21:04;1.20;;;0.30;;
74158;SDS011;62511;47.970;11.774;2022-11-04T08:23:30;2.40;;;0.90;;
74158;SDS011;62511;47.970;11.774;2022-11-04T08:25:56;0.80;;;0.50;;
74158;SDS011;62511;47.970;11.774;2022-11-04T08:28:22;0.47;;;0.40;;
74158;SDS011;62511;47.970;11.774;2022-11-04T08:30:52;0.20;;;0.20;;
74158;SDS011;62511;47.970;11.774;2022-11-04T08:33:18;0.40;;;0.40;;
74158;SDS011;62511;47.970;11.774;2022-11-04T08:35:44;0.82;;;0.60;;
74158;SDS011;62511;47.970;11.774;2022-11-04T08:38:10;0.73;;;0.50;;
74158;SDS011;62511;47.970;11.774;2022-11-04T08:40:36;1.60;;;0.77;;
74158;SDS011;62511;47.970;11.774;2022-11-04T08:43:02;2.75;;;1.60;;
74158;SDS011;62511;47.970;11.774;2022-11-04T08:45:28;5.60;;;3.40;;
74158;SDS011;62511;47.970;11.774;2022-11-04T08:47:54;2.85;;;2.42;;
74158;SDS011;62511;47.970;11.774;2022-11-04T08:50:20;3.83;;;2.17;;
74158;SDS011;62511;47.970;11.774;2022-11-04T08:52:51;0.82;;;0.70;;
74158;SDS011;62511;47.970;11.774;2022-11-04T08:55:17;0.57;;;0.28;;
74158;SDS011;62511;47.970;11.774;2022-11-04T08:57:43;5.72;;;2.60;;
74158;SDS011;62511;47.970;11.774;2022-11-04T09:00:09;0.93;;;0.88;;
74158;SDS011;62511;47.970;11.774;2022-11-04T09:02:36;1.52;;;0.40;;
74158;SDS011;62511;47.970;11.774;2022-11-04T09:05:02;1.15;;;0.50;;
74158;SDS011;62511;47.970;11.774;2022-11-04T09:07:28;0.93;;;0.50;;
74158;SDS011;62511;47.970;11.774;2022-11-04T09:09:54;0.93;;;0.32;;
74158;SDS011;62511;47.970;11.774;2022-11-04T09:12:20;3.55;;;0.32;;
74158;SDS011;62511;47.970;11.774;2022-11-04T09:14:46;2.65;;;0.70;;
74158;SDS011;62511;47.970;11.774;2022-11-04T09:17:12;6.03;;;3.35;;
74158;SDS011;62511;47.970;11.774;2022-11-04T09:19:38;1.27;;;0.70;;
74158;SDS011;62511;47.970;11.774;2022-11-04T09:22:04;2.33;;;0.55;;
74158;SDS011;62511;47.970;11.774;2022-11-04T09:24:30;1.70;;;0.35;;
74158;SDS011;62511;47.970;11.774;2022-11-04T09:26:56;1.35;;;0.32;;
74158;SDS011;62511;47.970;11.774;2022-11-04T09:29:22;7.05;;;2.65;;
74158;SDS011;62511;47.970;11.774;2022-11-04T09:31:48;7.53;;;3.08;;
74158;SDS011;62511;47.970;11.774;2022-11-04T09:34:14;12.40;;;5.18;;
74158;SDS011;62511;47.970;11.774;2022-11-04T09:36:41;3.75;;;1.95;;
74158;SDS011;62511;47.970;11.774;2022-11-04T09:39:08;2.90;;;1.60;;
74158;SDS011;62511;47.970;11.774;2022-11-04T09:41:41;4.97;;;2.45;;
74158;SDS011;62511;47.970;11.774;2022-11-04T09:46:37;2.55;;;1.45;;
74158;SDS011;62511;47.970;11.774;2022-11-04T09:49:04;2.35;;;1.60;;
74158;SDS011;62511;47.970;11.774;2022-11-04T09:51:31;3.17;;;1.35;;
74158;SDS011;62511;47.970;11.774;2022-11-04T09:53:59;2.65;;;1.38;;
74158;SDS011;62511;47.970;11.774;2022-11-04T09:58:55;2.53;;;1.58;;
74158;SDS011;62511;47.970;11.774;2022-11-04T10:01:31;3.60;;;1.30;;
74158;SDS011;62511;47.970;11.774;2022-11-04T10:04:12;1.67;;;0.85;;
74158;SDS011;62511;47.970;11.774;2022-11-04T10:09:17;1.00;;;0.80;;
74158;SDS011;62511;47.970;11.774;2022-11-04T10:11:50;2.67;;;1.13;;
74158;SDS011;62511;47.970;11.774;2022-11-04T10:19:18;2.58;;;1.10;;
74158;SDS011;62511;47.970;11.774;2022-11-04T10:27:40;0.70;;;0.50;;
74158;SDS011;62511;47.970;11.774;2022-11-04T10:29:44;0.52;;;0.47;;
74158;SDS011;62511;47.970;11.774;2022-11-04T10:32:15;1.15;;;0.50;;
74158;SDS011;62511;47.970;11.774;2022-11-04T10:34:47;0.70;;;0.40;;
74158;SDS011;62511;47.970;11.774;2022-11-04T10:37:14;0.52;;;0.47;;
74158;SDS011;62511;47.970;11.774;2022-11-04T10:39:44;0.90;;;0.47;;
74158;SDS011;62511;47.970;11.774;2022-11-04T10:42:11;3.10;;;1.52;;
74158;SDS011;62511;47.970;11.774;2022-11-04T10:44:39;2.20;;;1.10;;
74158;SDS011;62511;47.970;11.774;2022-11-04T10:47:17;1.20;;;0.52;;
74158;SDS011;62511;47.970;11.774;2022-11-04T10:50:13;1.63;;;0.77;;
74158;SDS011;62511;47.970;11.774;2022-11-04T10:52:33;1.23;;;0.57;;
74158;SDS011;62511;47.970;11.774;2022-11-04T10:55:08;1.25;;;0.45;;
74158;SDS011;62511;47.970;11.774;2022-11-04T10:57:36;1.52;;;0.80;;
74158;SDS011;62511;47.970;11.774;2022-11-04T11:00:03;1.40;;;0.88;;
74158;SDS011;62511;47.970;11.774;2022-11-04T11:07:48;0.98;;;0.70;;
74158;SDS011;62511;47.970;11.774;2022-11-04T11:10:18;2.08;;;1.25;;
74158;SDS011;62511;47.970;11.774;2022-11-04T11:17:58;5.70;;;1.65;;
74158;SDS011;62511;47.970;11.774;2022-11-04T11:20:25;3.78;;;2.03;;
74158;SDS011;62511;47.970;11.774;2022-11-04T11:22:51;3.67;;;1.23;;
74158;SDS011;62511;47.970;11.774;2022-11-04T11:27:48;1.73;;;0.80;;
74158;SDS011;62511;47.970;11.774;2022-11-04T11:30:21;0.80;;;0.63;;
74158;SDS011;62511;47.970;11.774;2022-11-04T11:32:50;1.00;;;0.50;;
74158;SDS011;62511;47.970;11.774;2022-11-04T11:35:20;1.40;;;0.70;;
74158;SDS011;62511;47.970;11.774;2022-11-04T11:37:47;0.98;;;0.57;;
74158;SDS011;62511;47.970;11.774;2022-11-04T11:40:26;1.52;;;0.68;;
74158;SDS011;62511;47.970;11.774;2022-11-04T11:42:53;0.50;;;0.30;;
74158;SDS011;62511;47.970;11.774;2022-11-04T11:45:19;2.10;;;0.30;;
74158;SDS011;62511;47.970;11.774;2022-11-04T11:47:47;1.67;;;0.60;;
74158;SDS011;62511;47.970;11.774;2022-11-04T11:50:19;4.93;;;1.38;;
74158;SDS011;62511;47.970;11.774;2022-11-04T11:52:48;1.15;;;0.80;;
74158;SDS011;62511;47.970;11.774;2022-11-04T12:00:28;2.05;;;1.00;;
74158;SDS011;62511;47.970;11.774;2022-11-04T12:03:13;1.90;;;0.77;;
74158;SDS011;62511;47.970;11.774;2022-11-04T12:16:28;2.75;;;1.88;;
74158;SDS011;62511;47.970;11.774;2022-11-04T12:25:55;0.47;;;0.40;;
74158;SDS011;62511;47.970;11.774;2022-11-04T12:29:00;2.08;;;0.98;;
74158;SDS011;62511;47.970;11.774;2022-11-04T12:39:14;1.65;;;0.70;;
74158;SDS011;62511;47.970;11.774;2022-11-04T12:41:46;0.40;;;0.40;;
74158;SDS011;62511;47.970;11.774;2022-11-04T12:44:24;0.90;;;0.60;;
74158;SDS011;62511;47.970;11.774;2022-11-04T12:57:10;5.60;;;2.28;;
74158;SDS011;62511;47.970;11.774;2022-11-04T12:59:44;5.65;;;2.55;;
74158;SDS011;62511;47.970;11.774;2022-11-04T13:04:43;1.77;;;0.85;;
74158;SDS011;62511;47.970;11.774;2022-11-04T13:07:21;1.85;;;1.20;;
74158;SDS011;62511;47.970;11.774;2022-11-04T13:09:52;1.40;;;0.80;;
74158;SDS011;62511;47.970;11.774;2022-11-04T13:12:24;2.13;;;1.52;;
74158;SDS011;62511;47.970;11.774;2022-11-04T13:14:59;1.45;;;0.68;;
74158;SDS011;62511;47.970;11.774;2022-11-04T13:17:28;1.38;;;0.55;;
74158;SDS011;62511;47.970;11.774;2022-11-04T13:19:59;2.22;;;0.70;;
74158;SDS011;62511;47.970;11.774;2022-11-04T13:22:31;1.67;;;0.90;;
74158;SDS011;62511;47.970;11.774;2022-11-04T13:24:58;1.58;;;1.33;;
74158;SDS011;62511;47.970;11.774;2022-11-04T13:27:29;1.48;;;1.00;;
74158;SDS011;62511;47.970;11.774;2022-11-04T13:32:48;9.73;;;2.63;;
74158;SDS011;62511;47.970;11.774;2022-11-04T13:35:20;4.63;;;2.28;;
74158;SDS011;62511;47.970;11.774;2022-11-04T13:37:54;6.70;;;2.67;;
74158;SDS011;62511;47.970;11.774;2022-11-04T13:40:24;5.78;;;3.53;;
74158;SDS011;62511;47.970;11.774;2022-11-04T13:45:47;6.25;;;2.22;;
74158;SDS011;62511;47.970;11.774;2022-11-04T13:48:15;3.08;;;1.98;;
74158;SDS011;62511;47.970;11.774;2022-11-04T13:50:42;4.10;;;2.22;;
74158;SDS011;62511;47.970;11.774;2022-11-04T13:53:09;11.00;;;6.28;;
74158;SDS011;62511;47.970;11.774;2022-11-04T13:55:35;3.63;;;2.40;;
74158;SDS011;62511;47.970;11.774;2022-11-04T13:58:16;3.55;;;1.52;;
74158;SDS011;62511;47.970;11.774;2022-11-04T14:00:43;3.20;;;1.83;;
74158;SDS011;62511;47.970;11.774;2022-11-04T14:08:23;1.85;;;1.00;;
74158;SDS011;62511;47.970;11.774;2022-11-04T14:15:58;2.08;;;0.55;;
74158;SDS011;62511;47.970;11.774;2022-11-04T14:18:26;0.95;;;0.68;;
74158;SDS011;62511;47.970;11.774;2022-11-04T14:21:00;0.73;;;0.57;;
74158;SDS011;62511;47.970;11.774;2022-11-04T14:23:26;0.68;;;0.45;;
74158;SDS011;62511;47.970;11.774;2022-11-04T14:26:02;0.40;;;0.30;;
74158;SDS011;62511;47.970;11.774;2022-11-04T14:28:30;1.02;;;0.50;;
74158;SDS011;62511;47.970;11.774;2022-11-04T14:30:57;0.70;;;0.50;;
74158;SDS011;62511;47.970;11.774;2022-11-04T14:33:34;0.43;;;0.40;;
74158;SDS011;62511;47.970;11.774;2022-11-04T14:38:53;2.75;;;0.57;;
74158;SDS011;62511;47.970;11.774;2022-11-04T14:43:52;0.60;;;0.43;;
74158;SDS011;62511;47.970;11.774;2022-11-04T14:46:20;0.73;;;0.40;;
74158;SDS011;62511;47.970;11.774;2022-11-04T14:51:20;0.73;;;0.40;;
74158;SDS011;62511;47.970;11.774;2022-11-04T14:53:48;1.40;;;0.50;;
74158;SDS011;62511;47.970;11.774;2022-11-04T14:56:16;1.02;;;0.50;;
74158;SDS011;62511;47.970;11.774;2022-11-04T14:58:58;0.85;;;0.55;;
74158;SDS011;62511;47.970;11.774;2022-11-04T15:01:25;0.85;;;0.50;;
74158;SDS011;62511;47.970;11.774;2022-11-04T15:03:53;1.00;;;0.35;;
74158;SDS011;62511;47.970;11.774;2022-11-04T15:06:27;0.32;;;0.32;;
74158;SDS011;62511;47.970;11.774;2022-11-04T15:08:54;0.50;;;0.30;;
74158;SDS011;62511;47.970;11.774;2022-11-04T15:11:24;1.10;;;0.50;;
74158;SDS011;62511;47.970;11.774;2022-11-04T15:14:30;0.95;;;0.50;;
74158;SDS011;62511;47.970;11.774;2022-11-04T15:16:56;0.77;;;0.40;;
74158;SDS011;62511;47.970;11.774;2022-11-04T15:19:26;0.52;;;0.40;;
74158;SDS011;62511;47.970;11.774;2022-11-04T15:21:52;0.80;;;0.40;;
74158;SDS011;62511;47.970;11.774;2022-11-04T15:24:18;0.50;;;0.47;;
74158;SDS011;62511;47.970;11.774;2022-11-04T15:26:48;1.42;;;0.65;;
74158;SDS011;62511;47.970;11.774;2022-11-04T15:29:15;3.33;;;0.68;;
74158;SDS011;62511;47.970;11.774;2022-11-04T15:31:56;0.93;;;0.50;;
74158;SDS011;62511;47.970;11.774;2022-11-04T15:34:23;1.35;;;0.70;;
74158;SDS011;62511;47.970;11.774;2022-11-04T15:36:50;1.08;;;0.68;;
74158;SDS011;62511;47.970;11.774;2022-11-04T15:39:21;1.85;;;0.93;;
74158;SDS011;62511;47.970;11.774;2022-11-04T15:41:48;1.83;;;1.00;;
74158;SDS011;62511;47.970;11.774;2022-11-04T15:49:45;2.63;;;1.60;;
74158;SDS011;62511;47.970;11.774;2022-11-04T15:52:22;1.33;;;1.00;;
74158;SDS011;62511;47.970;11.774;2022-11-04T15:54:54;1.35;;;0.90;;
74158;SDS011;62511;47.970;11.774;2022-11-04T16:02:19;1.38;;;0.88;;
74158;SDS011;62511;47.970;11.774;2022-11-04T16:04:54;2.00;;;1.40;;
74158;SDS011;62511;47.970;11.774;2022-11-04T16:07:28;1.33;;;1.00;;
74158;SDS011;62511;47.970;11.774;2022-11-04T16:09:55;1.48;;;0.95;;
74158;SDS011;62511;47.970;11.774;2022-11-04T16:14:54;1.67;;;1.25;;
74158;SDS011;62511;47.970;11.774;2022-11-04T16:17:20;1.23;;;0.80;;
74158;SDS011;62511;47.970;11.774;2022-11-04T16:19:48;1.98;;;0.80;;
74158;SDS011;62511;47.970;11.774;2022-11-04T16:22:19;2.67;;;1.10;;
74158;SDS011;62511;47.970;11.774;2022-11-04T16:24:46;1.73;;;1.20;;
74158;SDS011;62511;47.970;11.774;2022-11-04T16:27:15;2.50;;;1.40;;
74158;SDS011;62511;47.970;11.774;2022-11-04T16:29:43;2.05;;;1.50;;
74158;SDS011;62511;47.970;11.774;2022-11-04T16:32:26;5.28;;;2.38;;
74158;SDS011;62511;47.970;11.774;2022-11-04T16:34:53;4.28;;;1.92;;
74158;SDS011;62511;47.970;11.774;2022-11-04T16:37:20;3.83;;;1.90;;
74158;SDS011;62511;47.970;11.774;2022-11-04T16:39:46;2.58;;;1.40;;
74158;SDS011;62511;47.970;11.774;2022-11-04T16:42:14;1.85;;;1.08;;
74158;SDS011;62511;47.970;11.774;2022-11-04T16:44:49;3.17;;;1.80;;
74158;SDS011;62511;47.970;11.774;2022-11-04T16:49:42;3.50;;;1.40;;
74158;SDS011;62511;47.970;11.774;2022-11-04T16:52:11;3.85;;;1.60;;
74158;SDS011;62511;47.970;11.774;2022-11-04T16:54:38;2.90;;;1.30;;
74158;SDS011;62511;47.970;11.774;2022-11-04T16:57:04;1.95;;;1.10;;
74158;SDS011;62511;47.970;11.774;2022-11-04T16:59:35;4.55;;;1.75;;
74158;SDS011;62511;47.970;11.774;2022-11-04T17:02:04;8.85;;;3.75;;
74158;SDS011;62511;47.970;11.774;2022-11-04T17:04:35;6.95;;;3.50;;
74158;SDS011;62511;47.970;11.774;2022-11-04T17:07:01;9.57;;;5.50;;
74158;SDS011;62511;47.970;11.774;2022-11-04T17:09:27;14.05;;;10.60;;
74158;SDS011;62511;47.970;11.774;2022-11-04T17:11:53;10.70;;;6.00;;
74158;SDS011;62511;47.970;11.774;2022-11-04T17:14:20;9.25;;;4.95;;
74158;SDS011;62511;47.970;11.774;2022-11-04T17:16:46;11.38;;;6.43;;
74158;SDS011;62511;47.970;11.774;2022-11-04T17:19:14;8.50;;;4.70;;
74158;SDS011;62511;47.970;11.774;2022-11-04T17:21:41;6.70;;;3.33;;
74158;SDS011;62511;47.970;11.774;2022-11-04T17:24:08;7.00;;;2.58;;